Time;durP1;ratioP1;P1;durP2;ratioP2;P2;SDS_P1;SDS_P2;PMS_P1;PMS_P2;Temp;Humidity;BMP_temperature;BMP_pressure;BME280_temperature;BME280_humidity;BME280_pressure;Samples;Min_cycle;Max_cycle;Signal;HPM_P1;HPM_P2
2022/12/22 03:26:07;;;;;;;2.80;0.50;;;;;;;10.36;100.00;99240.13;8380855;28;20036;-49
2022/12/22 03:29:27;;;;;;;1.70;0.32;;;;;;;10.53;100.00;99236.41;8378678;28;20037;-50
2022/12/22 03:33:29;;;;;;;0.50;0.30;;;;;;;10.56;100.00;99236.06;8375621;28;20049;-50
2022/12/22 03:37:29;;;;;;;5.63;0.50;;;;;;;10.54;100.00;99229.13;8374208;28;20622;-49
2022/12/22 03:50:14;;;;;;;0.80;0.40;;;;;;;10.56;100.00;99206.34;8370149;28;20032;-52
2022/12/22 03:54:18;;;;;;;1.95;0.43;;;;;;;10.58;100.00;99193.47;8383136;28;20040;-52
2022/12/22 03:58:18;;;;;;;0.93;0.70;;;;;;;10.50;100.00;99180.00;8395026;28;20033;-51
2022/12/22 04:02:19;;;;;;;0.90;0.65;;;;;;;10.54;100.00;99180.47;8372941;28;20040;-50
2022/12/22 04:06:19;;;;;;;1.45;0.80;;;;;;;10.60;100.00;99177.94;8373412;28;20115;-51
2022/12/22 04:14:41;;;;;;;4.32;0.60;;;;;;;10.58;100.00;99176.44;8373865;28;20044;-50
2022/12/22 04:18:41;;;;;;;1.85;0.50;;;;;;;10.58;100.00;99169.16;8376011;28;20067;-50
2022/12/22 04:22:41;;;;;;;1.00;0.40;;;;;;;10.62;100.00;99157.00;8372597;28;20041;-50
2022/12/22 04:26:42;;;;;;;3.17;0.60;;;;;;;10.74;100.00;99155.59;8373688;28;20036;-50
2022/12/22 04:30:43;;;;;;;1.20;0.50;;;;;;;10.86;100.00;99159.59;8372850;28;20109;-50
2022/12/22 04:34:43;;;;;;;2.75;0.60;;;;;;;10.94;100.00;99154.16;8373360;28;20176;-50
2022/12/22 04:38:44;;;;;;;1.25;0.50;;;;;;;10.99;100.00;99154.47;8372428;28;20052;-50
2022/12/22 04:42:44;;;;;;;1.35;0.55;;;;;;;11.01;100.00;99141.59;8383504;28;20045;-51
2022/12/22 04:46:45;;;;;;;0.60;0.50;;;;;;;11.08;100.00;99147.16;8389798;28;20047;-50
2022/12/22 04:50:49;;;;;;;4.93;0.65;;;;;;;11.06;100.00;99139.22;8388563;28;20529;-50
2022/12/22 04:54:49;;;;;;;5.90;1.30;;;;;;;11.03;100.00;99134.19;8389250;28;20063;-51
2022/12/22 04:58:50;;;;;;;4.35;0.80;;;;;;;10.98;100.00;99133.84;8381705;28;20037;-50
2022/12/22 05:02:51;;;;;;;1.42;0.60;;;;;;;10.90;100.00;99139.31;8372218;28;20052;-50
2022/12/22 05:06:52;;;;;;;1.20;0.52;;;;;;;10.96;100.00;99127.78;8374740;28;20048;-50
2022/12/22 05:10:52;;;;;;;2.55;0.80;;;;;;;10.98;100.00;99131.16;8372172;28;20040;-50
2022/12/22 05:14:53;;;;;;;1.48;0.93;;;;;;;10.96;100.00;99121.53;8371746;28;20372;-53
2022/12/22 05:18:53;;;;;;;2.30;0.90;;;;;;;10.96;100.00;99111.56;8371871;28;20325;-50
2022/12/22 05:22:54;;;;;;;1.67;1.02;;;;;;;10.90;100.00;99116.84;8374197;28;20044;-50
2022/12/22 05:26:54;;;;;;;4.13;1.15;;;;;;;11.00;100.00;99125.56;8382804;28;20041;-50
2022/12/22 05:30:55;;;;;;;2.88;1.52;;;;;;;11.02;100.00;99121.69;8361257;28;20048;-51
2022/12/22 05:34:55;;;;;;;4.15;1.80;;;;;;;10.97;100.00;99117.81;8366523;28;20128;-51
2022/12/22 05:38:55;;;;;;;6.22;2.10;;;;;;;11.00;100.00;99123.72;8360098;28;20037;-50
2022/12/22 05:42:56;;;;;;;3.60;2.08;;;;;;;10.97;100.00;99118.66;8369923;28;20037;-51
2022/12/22 05:46:56;;;;;;;5.72;2.35;;;;;;;10.90;100.00;99112.28;8368852;28;20497;-51
2022/12/22 05:50:57;;;;;;;4.57;2.90;;;;;;;10.87;100.00;99118.03;8369914;28;20075;-50
2022/12/22 05:54:58;;;;;;;6.85;2.80;;;;;;;10.82;100.00;99128.53;8356124;28;20037;-53
2022/12/22 05:58:58;;;;;;;6.45;3.63;;;;;;;10.85;100.00;99130.88;8385334;28;20039;-50
2022/12/22 06:02:58;;;;;;;6.88;4.55;;;;;;;10.88;100.00;99135.94;8386208;28;20046;-50
2022/12/22 06:06:59;;;;;;;7.18;4.57;;;;;;;10.74;100.00;99147.47;8386236;28;20036;-51
2022/12/22 06:11:00;;;;;;;8.15;3.80;;;;;;;10.67;100.00;99146.50;8367488;28;20468;-52
2022/12/22 06:15:00;;;;;;;7.43;3.80;;;;;;;10.57;100.00;99148.56;8370229;28;20056;-51
2022/12/22 06:19:01;;;;;;;8.75;4.07;;;;;;;10.59;100.00;99156.50;8360600;28;20317;-51
2022/12/22 06:23:01;;;;;;;14.80;4.25;;;;;;;10.62;100.00;99157.00;8352259;28;20068;-51
2022/12/22 06:27:02;;;;;;;22.52;6.40;;;;;;;10.58;100.00;99166.47;8352743;28;20025;-54
2022/12/22 06:31:03;;;;;;;13.45;6.57;;;;;;;10.60;100.00;99163.59;8367581;28;20029;-52
2022/12/22 06:35:04;;;;;;;19.42;7.72;;;;;;;10.59;100.00;99172.72;8374908;28;20367;-51
2022/12/22 06:39:05;;;;;;;14.88;8.18;;;;;;;10.62;100.00;99189.44;8371739;28;20442;-52
2022/12/22 06:43:07;;;;;;;16.55;7.85;;;;;;;10.59;100.00;99205.13;8373468;28;20037;-51
2022/12/22 06:47:08;;;;;;;15.65;7.82;;;;;;;10.55;100.00;99201.09;8371701;28;20041;-53
2022/12/22 06:51:08;;;;;;;13.43;7.55;;;;;;;10.51;100.00;99202.44;8372091;28;20510;-53
2022/12/22 06:55:09;;;;;;;16.65;8.10;;;;;;;10.47;100.00;99218.19;8381150;28;20048;-53
2022/12/22 06:59:09;;;;;;;21.17;8.55;;;;;;;10.39;100.00;99215.47;8373803;28;20044;-53
2022/12/22 07:03:10;;;;;;;32.65;9.98;;;;;;;10.29;100.00;99212.13;8342094;28;20042;-51
2022/12/22 07:07:10;;;;;;;26.55;9.98;;;;;;;10.24;100.00;99227.97;8363220;28;20067;-52
2022/12/22 07:11:12;;;;;;;25.65;10.40;;;;;;;10.24;100.00;99233.38;8374881;28;20028;-52
2022/12/22 07:15:12;;;;;;;23.58;10.00;;;;;;;10.18;100.00;99250.25;8371543;28;20445;-52
2022/12/22 07:19:13;;;;;;;22.83;9.38;;;;;;;10.18;100.00;99250.25;8374161;28;20033;-54
2022/12/22 07:23:13;;;;;;;20.90;8.80;;;;;;;10.21;100.00;99266.13;8374375;28;20065;-51
2022/12/22 07:27:14;;;;;;;18.50;9.20;;;;;;;10.29;100.00;99273.41;8372758;28;20044;-52
2022/12/22 07:31:16;;;;;;;15.23;8.90;;;;;;;10.36;100.00;99286.06;8374518;28;20055;-51
2022/12/22 07:35:17;;;;;;;16.50;8.77;;;;;;;10.47;100.00;99288.44;8374394;28;20044;-52
2022/12/22 07:39:17;;;;;;;18.05;10.02;;;;;;;10.47;100.00;99309.19;8370557;28;20048;-52
2022/12/22 07:43:18;;;;;;;20.30;11.07;;;;;;;10.45;100.00;99312.06;8374156;28;20052;-52
2022/12/22 07:47:18;;;;;;;20.30;13.18;;;;;;;10.44;100.00;99315.78;8372973;28;20040;-51
2022/12/22 07:51:19;;;;;;;21.73;11.27;;;;;;;10.49;100.00;99326.91;8370899;28;20041;-52
2022/12/22 07:55:20;;;;;;;26.15;10.93;;;;;;;10.59;100.00;99322.19;8355473;28;20069;-51
2022/12/22 07:59:21;;;;;;;22.58;9.65;;;;;;;10.61;100.00;99322.03;8357989;28;20037;-53
2022/12/22 08:03:21;;;;;;;20.55;9.95;;;;;;;10.67;100.00;99326.75;8364516;28;20041;-52
2022/12/22 08:07:22;;;;;;;27.63;9.90;;;;;;;10.71;100.00;99331.66;8363348;28;20033;-52
2022/12/22 08:11:22;;;;;;;20.80;9.68;;;;;;;10.75;100.00;99349.22;8408302;28;20028;-52
2022/12/22 08:15:23;;;;;;;24.48;8.63;;;;;;;10.79;100.00;99358.66;8423105;28;20063;-52
2022/12/22 08:19:23;;;;;;;29.50;11.52;;;;;;;10.86;100.00;99373.16;8422025;28;20116;-54
2022/12/22 08:23:24;;;;;;;30.85;13.68;;;;;;;11.09;100.00;99387.69;8422053;28;20494;-54
2022/12/22 08:27:34;;;;;;;38.92;16.05;;;;;;;11.16;100.00;99413.03;8418863;28;20422;-52
2022/12/22 08:31:35;;;;;;;41.28;15.55;;;;;;;11.18;100.00;99413.72;8343671;28;20041;-52
2022/12/22 08:35:35;;;;;;;42.83;15.65;;;;;;;11.14;100.00;99416.94;8322761;28;20072;-54
2022/12/22 08:39:39;;;;;;;44.67;15.68;;;;;;;11.07;100.00;99433.00;8356950;28;20047;-52
2022/12/22 08:43:40;;;;;;;43.33;16.00;;;;;;;11.04;100.00;99435.22;8422367;28;20079;-52
2022/12/22 08:47:41;;;;;;;52.63;17.45;;;;;;;11.04;100.00;99443.31;8421601;28;20044;-52
2022/12/22 08:51:42;;;;;;;48.28;17.52;;;;;;;11.02;100.00;99443.50;8421586;28;20117;-55
2022/12/22 08:55:52;;;;;;;47.00;18.40;;;;;;;11.02;100.00;99462.41;8367985;28;20532;-55
2022/12/22 08:59:52;;;;;;;53.75;19.50;;;;;;;11.02;100.00;99467.84;8365419;28;20474;-55
2022/12/22 09:03:53;;;;;;;49.03;19.65;;;;;;;11.01;100.00;99486.94;8355284;28;20115;-52
2022/12/22 09:07:54;;;;;;;57.58;20.25;;;;;;;11.00;100.00;99507.72;8363455;28;20036;-56
2022/12/22 09:11:54;;;;;;;54.88;19.98;;;;;;;10.96;100.00;99517.19;8350356;28;20029;-52
2022/12/22 09:15:55;;;;;;;61.15;19.48;;;;;;;11.00;100.00;99523.06;8353200;28;20042;-54
2022/12/22 09:19:55;;;;;;;53.38;19.05;;;;;;;11.03;100.00;99526.31;8352031;28;20042;-52
2022/12/22 09:23:57;;;;;;;62.40;19.05;;;;;;;11.05;100.00;99548.63;8360447;28;20045;-52
2022/12/22 09:27:57;;;;;;;59.60;19.05;;;;;;;11.02;100.00;99548.97;8348880;28;20465;-52
2022/12/22 09:31:58;;;;;;;64.68;19.45;;;;;;;11.08;100.00;99558.25;8361587;28;20036;-52
2022/12/22 09:35:58;;;;;;;57.42;19.38;;;;;;;11.05;100.00;99575.69;8377144;28;20413;-53
2022/12/22 09:40:10;;;;;;;59.88;19.70;;;;;;;11.07;100.00;99592.56;8378010;28;20044;-52
2022/12/22 09:44:20;;;;;;;60.78;20.55;;;;;;;11.13;100.00;99600.00;8358818;28;20124;-52
2022/12/22 09:48:20;;;;;;;60.22;19.77;;;;;;;11.20;100.00;99590.22;8337287;28;20116;-51
2022/12/22 09:52:29;;;;;;;54.40;19.52;;;;;;;11.27;100.00;99599.38;8366270;28;20097;-52
2022/12/22 09:56:30;;;;;;;57.22;19.45;;;;;;;11.32;100.00;99591.56;8372147;28;20036;-52
2022/12/22 10:00:35;;;;;;;49.95;19.17;;;;;;;11.42;100.00;99605.81;8346538;28;20056;-53
2022/12/22 10:05:15;;;;;;;50.35;19.55;;;;;;;11.36;100.00;99608.34;8339420;28;20053;-52
2022/12/22 10:09:24;;;;;;;48.58;18.70;;;;;;;11.49;100.00;99604.13;8391635;28;20131;-54
2022/12/22 10:13:25;;;;;;;46.80;19.35;;;;;;;11.49;100.00;99617.66;8392383;28;20080;-52
2022/12/22 10:17:32;;;;;;;43.35;18.40;;;;;;;11.40;100.00;99626.78;8341566;28;20099;-55
2022/12/22 10:21:32;;;;;;;47.90;19.23;;;;;;;11.40;100.00;99634.91;8338738;28;20045;-51
2022/12/22 10:25:36;;;;;;;43.38;19.58;;;;;;;11.49;100.00;99639.31;8340622;28;20125;-52
2022/12/22 10:29:38;;;;;;;43.22;18.52;;;;;;;11.42;100.00;99648.25;8381588;28;20563;-51
2022/12/22 10:33:40;;;;;;;45.97;19.90;;;;;;;11.41;100.00;99658.22;8375847;28;20120;-52
2022/12/22 10:37:40;;;;;;;52.97;20.05;;;;;;;11.48;100.00;99658.41;8383628;28;20036;-51
2022/12/22 10:41:44;;;;;;;43.08;20.02;;;;;;;11.64;100.00;99659.31;8357237;28;20502;-51
2022/12/22 10:45:47;;;;;;;42.83;18.63;;;;;;;11.74;100.00;99668.13;8386493;28;20094;-54
2022/12/22 10:49:53;;;;;;;36.00;17.77;;;;;;;11.59;100.00;99667.03;8373638;28;20409;-51
2022/12/22 10:53:55;;;;;;;49.20;19.45;;;;;;;11.68;100.00;99674.19;8377532;28;20060;-51
2022/12/22 10:58:17;;;;;;;34.83;16.95;;;;;;;12.38;100.00;99674.50;8382209;28;20037;-51
2022/12/22 11:02:38;;;;;;;27.70;14.07;;;;;;;12.42;100.00;99671.28;8364139;28;20045;-51
2022/12/22 11:06:41;;;;;;;25.92;13.57;;;;;;;12.29;100.00;99680.97;8387447;28;20464;-51
2022/12/22 11:10:56;;;;;;;29.50;14.23;;;;;;;12.07;100.00;99692.50;8356562;28;20432;-51
2022/12/22 11:15:23;;;;;;;28.40;14.80;;;;;;;11.99;100.00;99695.19;8389514;28;20028;-51
2022/12/22 11:19:41;;;;;;;35.78;16.27;;;;;;;12.59;100.00;99707.34;8383576;28;20554;-54
2022/12/22 11:28:55;;;;;;;22.75;11.93;;;;;;;14.76;95.83;99734.81;8403212;27;20378;-50
2022/12/22 11:33:21;;;;;;;18.27;10.80;;;;;;;13.30;100.00;99737.97;8356093;28;20499;-50
2022/12/22 11:37:34;;;;;;;22.90;11.60;;;;;;;12.27;100.00;99745.31;8345765;28;20037;-50
2022/12/22 11:46:08;;;;;;;19.35;10.93;;;;;;;13.09;100.00;99754.00;8403253;27;20872;-50
2022/12/22 11:50:37;;;;;;;15.13;8.93;;;;;;;14.04;96.28;99749.03;8398969;27;20437;-50
2022/12/22 11:55:13;;;;;;;15.40;8.63;;;;;;;13.67;96.96;99740.81;8380716;27;20037;-51
2022/12/22 11:59:44;;;;;;;18.48;10.27;;;;;;;12.79;100.00;99754.72;8371975;27;20044;-53
2022/12/22 12:04:25;;;;;;;18.63;10.07;;;;;;;12.17;100.00;99750.06;8393692;27;20041;-50
2022/12/22 12:18:05;;;;;;;22.60;11.23;;;;;;;11.65;100.00;99753.03;8418812;27;20496;-52
2022/12/22 12:22:25;;;;;;;19.23;10.20;;;;;;;11.59;100.00;99750.97;8404513;28;20037;-54
2022/12/22 12:26:33;;;;;;;22.33;10.55;;;;;;;11.69;100.00;99757.09;8405687;28;20176;-51
2022/12/22 12:30:52;;;;;;;20.75;10.40;;;;;;;11.84;100.00;99758.16;8370613;28;20029;-53
2022/12/22 12:35:03;;;;;;;11.85;8.20;;;;;;;11.89;100.00;99746.81;8397239;28;20056;-55
2022/12/22 12:39:30;;;;;;;18.20;9.40;;;;;;;12.00;100.00;99742.94;8386804;28;20089;-50
2022/12/22 12:43:31;;;;;;;14.70;8.27;;;;;;;12.20;100.00;99742.44;8411790;28;20036;-51
2022/12/22 12:47:33;;;;;;;15.65;8.80;;;;;;;12.46;100.00;99747.66;8395503;28;20055;-52
2022/12/22 12:51:49;;;;;;;15.77;8.20;;;;;;;12.32;100.00;99745.66;8415124;28;20044;-50
2022/12/22 13:00:04;;;;;;;21.80;7.82;;;;;;;12.15;100.00;99743.97;8314744;28;20385;-51
2022/12/22 13:04:07;;;;;;;16.77;7.90;;;;;;;12.00;100.00;99745.66;8282111;28;20041;-50
2022/12/22 13:12:56;;;;;;;16.15;8.30;;;;;;;12.01;100.00;99747.34;8344730;27;20358;-50
2022/12/22 13:17:31;;;;;;;14.45;7.32;;;;;;;11.88;100.00;99754.13;8321921;28;20110;-51
2022/12/22 13:21:43;;;;;;;17.05;8.93;;;;;;;11.84;100.00;99758.16;8342381;28;20048;-50
2022/12/22 13:25:52;;;;;;;13.50;8.43;;;;;;;11.83;100.00;99759.19;8349928;28;20502;-50
2022/12/22 13:29:53;;;;;;;14.52;8.63;;;;;;;11.80;100.00;99759.50;8344712;28;20532;-51
2022/12/22 13:34:06;;;;;;;16.52;9.23;;;;;;;12.00;100.00;99751.06;8349461;28;20065;-51
2022/12/22 13:38:25;;;;;;;15.70;8.55;;;;;;;12.08;100.00;99748.38;8347870;28;20025;-50
2022/12/22 13:42:27;;;;;;;12.30;7.90;;;;;;;11.94;100.00;99747.16;8349340;28;20051;-53
2022/12/22 13:46:27;;;;;;;14.55;7.75;;;;;;;11.92;100.00;99754.59;8338875;28;20045;-50
2022/12/22 13:50:36;;;;;;;12.77;6.80;;;;;;;11.95;100.00;99769.69;8367579;28;20036;-50
2022/12/22 13:54:38;;;;;;;3.55;2.95;;;;;;;11.92;97.24;99772.75;8345041;28;20401;-50
2022/12/22 13:58:44;;;;;;;2.83;2.05;;;;;;;11.98;98.25;99763.94;8326279;28;20033;-52
2022/12/22 14:02:44;;;;;;;5.88;1.92;;;;;;;11.76;100.00;99755.44;8324173;28;20346;-50
2022/12/22 14:06:45;;;;;;;5.53;2.45;;;;;;;11.60;100.00;99760.81;8335706;28;20037;-50
2022/12/22 14:10:45;;;;;;;3.85;2.45;;;;;;;11.55;100.00;99757.72;8336110;28;20112;-52
2022/12/22 14:14:49;;;;;;;4.10;2.00;;;;;;;11.64;100.00;99745.94;8346437;28;20095;-50
2022/12/22 14:18:51;;;;;;;3.40;2.50;;;;;;;11.55;100.00;99746.06;8345475;28;20037;-51
2022/12/22 14:22:57;;;;;;;4.75;2.72;;;;;;;11.44;100.00;99754.50;8331115;28;20280;-50
2022/12/22 14:26:58;;;;;;;4.60;2.45;;;;;;;11.35;100.00;99750.06;8325323;28;20128;-51
2022/12/22 14:31:01;;;;;;;2.78;2.28;;;;;;;11.30;100.00;99757.81;8319998;28;20046;-54
2022/12/22 14:35:02;;;;;;;2.92;2.47;;;;;;;11.35;100.00;99750.91;8356883;28;20287;-50
2022/12/22 14:39:09;;;;;;;2.25;1.90;;;;;;;11.36;100.00;99738.22;8355957;28;20041;-51
2022/12/22 14:47:28;;;;;;;4.03;2.38;;;;;;;11.48;100.00;99728.78;8344231;27;20461;-54
2022/12/22 14:51:29;;;;;;;12.48;5.78;;;;;;;11.56;100.00;99726.13;8330333;28;20576;-54
2022/12/22 14:55:37;;;;;;;2.35;1.40;;;;;;;11.42;100.00;99727.59;8316800;28;20044;-51
2022/12/22 14:59:38;;;;;;;1.70;1.02;;;;;;;11.31;100.00;99716.22;8314350;28;20041;-54
2022/12/22 15:03:39;;;;;;;2.38;1.67;;;;;;;11.19;100.00;99707.56;8284804;28;20068;-54
2022/12/22 15:07:45;;;;;;;2.60;2.10;;;;;;;11.18;100.00;99710.44;8310604;28;20049;-54
2022/12/22 15:11:48;;;;;;;11.98;5.65;;;;;;;11.17;100.00;99706.91;8312637;28;20161;-54
2022/12/22 15:15:50;;;;;;;15.25;8.20;;;;;;;11.13;100.00;99702.81;8312935;28;20446;-53
2022/12/22 15:19:56;;;;;;;17.60;9.15;;;;;;;11.07;100.00;99692.63;8313564;28;20061;-51
2022/12/22 15:23:57;;;;;;;4.53;2.20;;;;;;;11.09;100.00;99685.22;8314126;28;20122;-54
2022/12/22 15:27:57;;;;;;;2.95;2.10;;;;;;;11.02;100.00;99681.47;8305339;28;20129;-52
2022/12/22 15:31:58;;;;;;;2.15;1.48;;;;;;;11.05;100.00;99683.88;8314896;28;20466;-51
2022/12/22 15:35:59;;;;;;;1.35;0.90;;;;;;;11.32;100.00;99678.16;8316032;28;20084;-51
2022/12/22 15:40:00;;;;;;;1.15;0.75;;;;;;;11.46;100.00;99664.00;8314093;28;20044;-54
2022/12/22 15:44:01;;;;;;;1.70;1.00;;;;;;;11.45;100.00;99669.56;8314103;28;20042;-51
2022/12/22 15:48:03;;;;;;;1.25;0.73;;;;;;;11.48;100.00;99664.69;8313867;28;20059;-52
2022/12/22 15:52:05;;;;;;;3.45;0.90;;;;;;;11.48;100.00;99664.69;8331437;28;20442;-51
2022/12/22 15:56:13;;;;;;;1.98;0.73;;;;;;;11.37;100.00;99651.47;8285547;28;20091;-53
2022/12/22 16:00:14;;;;;;;2.55;0.50;;;;;;;11.21;100.00;99659.56;8292133;28;20048;-54
2022/12/22 16:04:15;;;;;;;1.50;0.60;;;;;;;11.12;100.00;99652.44;8275137;28;20085;-51
2022/12/22 16:08:20;;;;;;;1.00;0.50;;;;;;;11.11;100.00;99647.19;8283372;28;20049;-53
2022/12/22 16:12:20;;;;;;;;;;;;;;;11.13;100.00;99646.00;8292517;28;20092;-52
2022/12/22 16:16:21;;;;;;;1.27;0.73;;;;;;;11.13;100.00;99642.47;8289533;28;20240;-55
2022/12/22 16:20:22;;;;;;;0.70;0.70;;;;;;;11.09;100.00;99628.41;8289857;28;20076;-53
2022/12/22 16:24:27;;;;;;;0.95;0.63;;;;;;;11.18;100.00;99623.88;8306671;28;20072;-53
2022/12/22 16:28:28;;;;;;;2.00;0.60;;;;;;;11.20;100.00;99605.63;8290552;28;20224;-52
2022/12/22 16:32:31;;;;;;;1.55;0.52;;;;;;;11.19;100.00;99610.16;8271824;28;20093;-53
2022/12/22 16:36:31;;;;;;;1.45;0.40;;;;;;;11.22;100.00;99603.56;8317843;28;20409;-52
2022/12/22 16:40:40;;;;;;;2.63;0.50;;;;;;;11.17;100.00;99606.81;8317199;28;20108;-54
2022/12/22 16:44:41;;;;;;;1.25;0.60;;;;;;;11.19;100.00;99610.16;8291252;28;20091;-53
2022/12/22 16:48:45;;;;;;;3.28;0.60;;;;;;;11.13;100.00;99605.41;8291056;28;20136;-53
2022/12/22 16:52:47;;;;;;;1.50;0.70;;;;;;;11.14;100.00;99593.63;8291049;28;20092;-51
2022/12/22 16:56:50;;;;;;;0.68;0.40;;;;;;;11.13;100.00;99594.59;8290080;28;20040;-53
2022/12/22 17:00:51;;;;;;;4.35;0.60;;;;;;;11.13;100.00;99583.78;8285762;28;20045;-52
2022/12/22 17:04:53;;;;;;;3.25;0.77;;;;;;;11.13;100.00;99586.50;8288256;28;20092;-51
2022/12/22 17:08:54;;;;;;;2.17;0.80;;;;;;;11.18;100.00;99572.47;8289022;28;20073;-53
2022/12/22 17:13:20;;;;;;;3.75;0.93;;;;;;;11.18;100.00;99580.56;8282943;28;20048;-52
2022/12/22 17:17:22;;;;;;;1.30;0.65;;;;;;;11.13;100.00;99569.44;8276831;28;20149;-52
2022/12/22 17:21:23;;;;;;;1.27;0.60;;;;;;;11.12;100.00;99565.88;8263653;28;20034;-54
2022/12/22 17:25:27;;;;;;;1.27;0.50;;;;;;;11.17;100.00;99557.25;8256975;28;20042;-54
2022/12/22 17:29:28;;;;;;;2.15;0.60;;;;;;;11.15;100.00;99560.13;8283255;28;20384;-51
2022/12/22 17:33:31;;;;;;;2.63;0.77;;;;;;;11.16;100.00;99551.00;8298015;28;20088;-53
2022/12/22 17:37:32;;;;;;;1.63;0.50;;;;;;;11.16;100.00;99556.41;8321556;28;20546;-52
2022/12/22 17:41:32;;;;;;;2.33;0.80;;;;;;;11.20;100.00;99546.09;8318521;28;20487;-50
2022/12/22 17:45:33;;;;;;;3.15;1.17;;;;;;;11.23;100.00;99530.34;8277049;28;20407;-53
2022/12/22 17:49:34;;;;;;;3.67;1.40;;;;;;;11.21;100.00;99524.28;8287306;28;20128;-51
2022/12/22 17:53:34;;;;;;;3.83;1.23;;;;;;;11.15;100.00;99533.06;8287393;28;20034;-53
2022/12/22 17:57:35;;;;;;;1.90;0.95;;;;;;;11.15;100.00;99527.66;8290041;28;20046;-53
2022/12/22 18:01:38;;;;;;;3.58;1.13;;;;;;;11.21;100.00;99524.28;8273150;28;20048;-51
2022/12/22 18:05:43;;;;;;;2.50;1.00;;;;;;;11.19;100.00;99526.31;8263545;28;20038;-51
2022/12/22 18:09:45;;;;;;;4.40;1.40;;;;;;;11.11;100.00;99522.75;8283156;28;20042;-52
2022/12/22 18:13:46;;;;;;;4.50;1.10;;;;;;;11.13;100.00;99518.88;8297277;28;20068;-54
2022/12/22 18:17:47;;;;;;;2.25;1.00;;;;;;;11.17;100.00;99508.56;8319973;28;20049;-51
2022/12/22 18:21:48;;;;;;;6.90;1.23;;;;;;;11.28;100.00;99506.34;8288686;28;20109;-54
2022/12/22 18:25:49;;;;;;;7.43;1.38;;;;;;;11.37;100.00;99499.94;8271198;28;20050;-51
2022/12/22 18:29:49;;;;;;;9.15;1.60;;;;;;;11.43;100.00;99504.66;8296960;28;20042;-53
2022/12/22 18:33:50;;;;;;;9.57;1.70;;;;;;;11.47;100.00;99503.28;8286565;28;20108;-51
2022/12/22 18:37:53;;;;;;;30.40;7.72;;;;;;;11.39;100.00;99487.09;8293393;28;20104;-53
2022/12/22 18:41:54;;;;;;;12.13;2.85;;;;;;;11.32;100.00;99488.75;8272752;28;20048;-51
2022/12/22 18:45:55;;;;;;;10.30;2.30;;;;;;;11.30;100.00;99477.28;8267179;28;20049;-50
2022/12/22 18:49:56;;;;;;;15.18;2.20;;;;;;;11.38;100.00;99474.53;8265227;28;20117;-50
2022/12/22 18:53:57;;;;;;;8.57;1.52;;;;;;;11.40;100.00;99467.09;8268922;28;20053;-52
2022/12/22 18:57:59;;;;;;;11.75;2.00;;;;;;;11.40;100.00;99456.28;8274046;28;20270;-54
2022/12/22 19:02:11;;;;;;;14.00;2.00;;;;;;;11.36;100.00;99457.66;8267650;28;20045;-54
2022/12/22 19:06:14;;;;;;;12.73;2.47;;;;;;;11.34;100.00;99451.56;8261986;28;20189;-50
2022/12/22 19:10:21;;;;;;;12.38;2.20;;;;;;;11.31;100.00;99451.91;8266966;28;20038;-51
2022/12/22 19:14:22;;;;;;;8.65;2.00;;;;;;;11.28;100.00;99452.25;8272442;28;20050;-51
2022/12/22 19:18:23;;;;;;;9.73;1.95;;;;;;;11.32;100.00;99442.75;8263126;28;20060;-54
2022/12/22 19:22:24;;;;;;;17.17;3.47;;;;;;;11.29;100.00;99443.09;8273602;28;20038;-51
2022/12/22 19:26:25;;;;;;;11.43;2.55;;;;;;;11.28;100.00;99440.56;8261410;28;20120;-53
2022/12/22 19:30:28;;;;;;;16.70;2.58;;;;;;;11.35;100.00;99441.59;8273438;28;20042;-52
2022/12/22 19:34:28;;;;;;;17.83;7.82;;;;;;;11.28;100.00;99430.59;8265383;28;20041;-51
2022/12/22 19:38:31;;;;;;;13.85;4.47;;;;;;;11.14;100.00;99434.03;8278334;28;20116;-54
2022/12/22 19:42:31;;;;;;;13.38;2.80;;;;;;;11.20;100.00;99427.91;8287685;28;20045;-50
2022/12/22 19:46:33;;;;;;;11.82;2.85;;;;;;;11.17;100.00;99439.09;8274778;28;20046;-51
2022/12/22 19:50:33;;;;;;;11.02;2.30;;;;;;;11.25;100.00;99441.75;8286800;28;20083;-51
2022/12/22 19:54:35;;;;;;;11.38;2.97;;;;;;;11.43;100.00;99439.72;8268767;28;20034;-54
2022/12/22 19:58:39;;;;;;;13.32;2.53;;;;;;;11.55;100.00;99432.06;8284271;28;20582;-51
2022/12/22 20:02:39;;;;;;;23.30;3.43;;;;;;;11.63;100.00;99438.34;8287554;28;20041;-51
2022/12/22 20:06:40;;;;;;;17.65;3.13;;;;;;;11.60;100.00;99432.41;8288128;28;20042;-51
2022/12/22 20:10:42;;;;;;;10.40;2.80;;;;;;;11.59;100.00;99428.84;8286554;28;20045;-51
2022/12/22 20:14:42;;;;;;;11.63;2.72;;;;;;;11.55;100.00;99432.91;8286485;28;20046;-52
2022/12/22 20:18:45;;;;;;;14.68;2.25;;;;;;;11.57;100.00;99432.75;8281363;28;20046;-52
2022/12/22 20:22:51;;;;;;;13.10;2.60;;;;;;;11.55;100.00;99441.03;8287703;28;20510;-54
2022/12/22 20:26:51;;;;;;;17.15;2.75;;;;;;;11.56;100.00;99440.00;8283939;28;20062;-52
2022/12/22 20:30:53;;;;;;;11.30;2.63;;;;;;;11.53;100.00;99434.13;8271814;28;20061;-52
2022/12/22 20:34:54;;;;;;;9.32;3.22;;;;;;;11.46;100.00;99428.53;8263774;28;20034;-53
2022/12/22 20:38:56;;;;;;;19.75;2.65;;;;;;;11.39;100.00;99432.09;8253624;28;20500;-53
2022/12/22 20:42:57;;;;;;;12.52;2.70;;;;;;;11.32;100.00;99431.94;8275620;28;20092;-52
2022/12/22 20:46:57;;;;;;;16.08;3.58;;;;;;;11.31;100.00;99434.81;8285314;28;20038;-55
2022/12/22 20:51:00;;;;;;;9.23;2.20;;;;;;;11.35;100.00;99419.94;8286868;28;20062;-51
2022/12/22 20:55:00;;;;;;;7.93;2.28;;;;;;;11.32;100.00;99426.53;8269250;28;20038;-55
2022/12/22 20:59:14;;;;;;;8.43;2.35;;;;;;;11.26;100.00;99424.50;8274551;28;20065;-53
2022/12/22 21:03:15;;;;;;;15.20;2.67;;;;;;;11.17;100.00;99422.84;8267161;28;20517;-51
2022/12/22 21:07:16;;;;;;;10.82;2.30;;;;;;;11.15;100.00;99430.28;8284273;28;20455;-51
2022/12/22 21:11:16;;;;;;;9.75;2.00;;;;;;;11.18;100.00;99429.94;8284875;28;20042;-52
2022/12/22 21:15:21;;;;;;;9.13;2.05;;;;;;;11.20;100.00;99421.66;8272918;28;20387;-52
2022/12/22 21:19:21;;;;;;;10.38;2.25;;;;;;;11.17;100.00;99420.16;8287234;28;20072;-52
2022/12/22 21:23:22;;;;;;;11.55;3.33;;;;;;;10.98;100.00;99414.25;8319588;28;20041;-51
2022/12/22 21:27:23;;;;;;;13.45;2.70;;;;;;;10.90;100.00;99401.56;8314331;28;20052;-52
2022/12/22 21:31:23;;;;;;;15.07;2.90;;;;;;;10.82;100.00;99406.97;8283501;28;20410;-51
2022/12/22 21:35:33;;;;;;;12.55;3.60;;;;;;;10.75;100.00;99427.59;8285751;28;20041;-51
2022/12/22 21:39:40;;;;;;;7.30;3.47;;;;;;;10.60;100.00;99423.88;8284975;28;20049;-52
2022/12/22 21:43:41;;;;;;;14.85;3.90;;;;;;;10.47;100.00;99428.94;8296461;28;20042;-52
2022/12/22 21:47:42;;;;;;;20.50;7.65;;;;;;;10.45;100.00;99425.53;8285742;28;20157;-51
2022/12/22 21:51:42;;;;;;;12.27;6.07;;;;;;;10.48;100.00;99422.50;8285815;28;20057;-51
2022/12/22 21:55:43;;;;;;;20.08;6.50;;;;;;;10.43;100.00;99424.84;8284999;28;20049;-54
2022/12/22 21:59:44;;;;;;;19.20;5.35;;;;;;;10.48;100.00;99418.94;8281918;28;20175;-53
2022/12/22 22:03:44;;;;;;;21.17;4.35;;;;;;;10.41;100.00;99415.22;8279250;28;20120;-54
2022/12/22 22:07:45;;;;;;;12.93;3.97;;;;;;;10.35;100.00;99419.44;8284177;28;20089;-51
2022/12/22 22:12:46;;;;;;;16.98;4.47;;;;;;;10.22;100.00;99424.50;8286036;28;20038;-51
2022/12/22 22:16:08;;;;;;;18.83;6.13;;;;;;;10.36;100.00;99415.72;8312575;28;20577;-51
2022/12/22 22:20:15;;;;;;;17.15;6.10;;;;;;;10.42;100.00;99431.28;8272774;28;20041;-51
2022/12/22 22:24:15;;;;;;;11.80;4.60;;;;;;;10.43;100.00;99432.13;8285001;28;20054;-51
2022/12/22 22:28:16;;;;;;;15.00;3.90;;;;;;;10.43;100.00;99422.16;8275419;28;20047;-51
2022/12/22 22:32:16;;;;;;;14.70;4.00;;;;;;;10.47;100.00;99417.25;8281224;28;20045;-51
2022/12/22 22:36:17;;;;;;;10.55;3.38;;;;;;;10.49;100.00;99426.06;8256337;28;20454;-51
2022/12/22 22:40:20;;;;;;;11.77;4.22;;;;;;;10.41;100.00;99421.50;8265014;28;20129;-54
2022/12/22 22:44:21;;;;;;;10.25;3.17;;;;;;;10.46;100.00;99421.81;8258769;28;20037;-51
2022/12/22 22:48:23;;;;;;;9.55;3.70;;;;;;;10.51;100.00;99424.88;8281986;28;20129;-51
2022/12/22 22:52:24;;;;;;;15.95;3.88;;;;;;;10.53;100.00;99424.69;8278494;28;20045;-52